createdAt,value
2023-01-26T00:00:11.864Z,43.00
2023-01-26T00:02:39.970Z,36.22
2023-01-26T00:05:08.656Z,39.92
2023-01-26T00:07:38.033Z,38.08
2023-01-26T00:10:07.538Z,40.40
2023-01-26T00:12:36.007Z,40.67
2023-01-26T00:15:04.274Z,45.40
2023-01-26T00:17:33.822Z,36.40
2023-01-26T00:20:02.680Z,40.60
2023-01-26T00:22:30.778Z,40.00
2023-01-26T00:25:00.584Z,42.88
2023-01-26T00:27:29.382Z,47.67
2023-01-26T00:29:57.775Z,42.42
2023-01-26T00:32:26.195Z,42.72
2023-01-26T00:34:56.627Z,40.42
2023-01-26T00:37:27.093Z,40.70
2023-01-26T00:39:55.626Z,38.33
2023-01-26T00:42:26.628Z,40.88
2023-01-26T00:44:54.874Z,38.78
2023-01-26T00:47:23.005Z,35.17
2023-01-26T00:49:51.175Z,41.42
2023-01-26T00:52:21.205Z,37.75
2023-01-26T00:54:50.991Z,36.10
2023-01-26T00:57:19.044Z,40.80
2023-01-26T00:59:47.339Z,41.60
2023-01-26T01:02:18.429Z,44.90
2023-01-26T01:04:46.818Z,41.03
2023-01-26T01:07:15.137Z,39.38
2023-01-26T01:09:46.522Z,40.10
2023-01-26T01:12:14.710Z,41.03
2023-01-26T01:14:43.218Z,39.47
2023-01-26T01:17:11.691Z,40.33
2023-01-26T01:19:41.305Z,46.05
2023-01-26T01:22:12.605Z,38.30
2023-01-26T01:24:41.236Z,47.60
2023-01-26T01:27:11.230Z,37.90
2023-01-26T01:29:39.382Z,39.88
2023-01-26T01:32:07.878Z,46.55
2023-01-26T01:34:37.463Z,43.20
2023-01-26T01:37:05.660Z,42.13
2023-01-26T01:39:35.091Z,48.45
2023-01-26T01:42:05.878Z,42.03
2023-01-26T01:44:39.757Z,38.60
2023-01-26T01:47:13.619Z,41.00
2023-01-26T01:49:46.488Z,45.67
2023-01-26T01:52:17.630Z,48.08
2023-01-26T01:54:52.296Z,43.13
2023-01-26T01:57:27.878Z,52.42
2023-01-26T02:00:02.008Z,41.55
2023-01-26T02:02:31.170Z,40.58
2023-01-26T02:05:08.745Z,39.95
2023-01-26T02:07:40.489Z,42.08
2023-01-26T02:10:23.972Z,38.70
2023-01-26T02:12:57.022Z,38.97
2023-01-26T02:15:26.351Z,38.80
2023-01-26T02:17:56.253Z,41.67
2023-01-26T02:20:33.213Z,40.35
2023-01-26T02:23:08.546Z,40.22
2023-01-26T02:25:45.799Z,37.20
2023-01-26T02:28:15.874Z,31.48
2023-01-26T02:30:44.600Z,35.20
2023-01-26T02:33:16.916Z,33.03
2023-01-26T02:35:45.314Z,36.80
2023-01-26T02:38:16.785Z,42.28
2023-01-26T02:40:51.782Z,36.78
2023-01-26T02:43:22.230Z,41.50
2023-01-26T02:45:50.485Z,36.25
2023-01-26T02:48:39.589Z,34.55
2023-01-26T02:51:09.243Z,32.22
2023-01-26T02:53:37.219Z,37.90
2023-01-26T02:56:04.484Z,39.63
2023-01-26T02:58:36.803Z,33.20
2023-01-26T03:01:05.912Z,42.35
2023-01-26T03:03:42.807Z,40.47
2023-01-26T03:06:12.235Z,46.03
2023-01-26T03:08:43.741Z,36.95
2023-01-26T03:11:14.798Z,37.95
2023-01-26T03:13:44.311Z,43.35
2023-01-26T03:16:15.807Z,36.63
2023-01-26T03:19:01.572Z,39.67
2023-01-26T03:21:46.958Z,37.25
2023-01-26T03:24:33.051Z,36.15
2023-01-26T03:27:19.447Z,40.67
2023-01-26T03:29:50.588Z,37.17
2023-01-26T03:32:20.190Z,40.33
2023-01-26T03:34:48.485Z,46.55
2023-01-26T03:37:22.081Z,41.83
2023-01-26T03:40:09.696Z,35.13
2023-01-26T03:42:55.989Z,38.13
2023-01-26T03:45:43.490Z,38.35
2023-01-26T03:48:31.408Z,39.63
2023-01-26T03:51:18.003Z,39.60
2023-01-26T03:54:03.425Z,35.33
2023-01-26T03:56:33.443Z,42.38
2023-01-26T03:59:08.358Z,38.20
2023-01-26T04:01:39.760Z,38.72
2023-01-26T04:04:26.711Z,44.00
2023-01-26T04:07:12.401Z,41.00
2023-01-26T04:09:40.751Z,38.70
2023-01-26T04:12:10.863Z,44.70
2023-01-26T04:14:57.009Z,49.42
2023-01-26T04:17:49.204Z,45.55
2023-01-26T04:20:34.920Z,42.00
2023-01-26T04:23:03.411Z,38.88
2023-01-26T04:25:31.578Z,40.08
2023-01-26T04:27:59.853Z,44.67
2023-01-26T04:30:27.896Z,44.15
2023-01-26T04:32:59.299Z,37.55
2023-01-26T04:35:27.404Z,44.60
2023-01-26T04:37:55.359Z,45.15
2023-01-26T04:40:25.759Z,37.88
2023-01-26T04:42:54.024Z,39.47
2023-01-26T04:45:23.294Z,42.05
2023-01-26T04:47:52.175Z,35.17
2023-01-26T04:50:22.165Z,38.85
2023-01-26T04:52:50.107Z,33.08
2023-01-26T04:55:18.172Z,37.25
2023-01-26T04:57:46.322Z,36.58
2023-01-26T05:00:15.049Z,33.35
2023-01-26T05:02:43.454Z,31.35
2023-01-26T05:05:12.600Z,34.92
2023-01-26T05:07:42.495Z,31.42
2023-01-26T05:10:15.522Z,35.65
2023-01-26T05:12:44.164Z,32.08
2023-01-26T05:15:14.280Z,29.45
2023-01-26T05:17:42.891Z,28.83
2023-01-26T05:20:13.382Z,28.98
2023-01-26T05:22:48.736Z,33.28
2023-01-26T05:25:16.829Z,35.67
2023-01-26T05:27:48.426Z,27.35
2023-01-26T05:30:17.557Z,32.72
2023-01-26T05:32:47.071Z,31.98
2023-01-26T05:35:15.339Z,33.58
2023-01-26T05:37:46.614Z,24.45
2023-01-26T05:40:15.172Z,29.23
2023-01-26T05:42:46.336Z,26.83
2023-01-26T05:45:14.475Z,30.00
2023-01-26T05:47:44.593Z,29.38
2023-01-26T05:50:14.200Z,24.88
2023-01-26T05:52:46.665Z,29.48
2023-01-26T05:55:16.393Z,26.17
2023-01-26T05:57:44.357Z,25.67
2023-01-26T06:00:14.151Z,29.00
2023-01-26T06:02:42.572Z,31.42
2023-01-26T06:05:11.122Z,25.73
2023-01-26T06:07:39.095Z,23.48
2023-01-26T06:10:11.204Z,20.67
2023-01-26T06:12:39.863Z,25.48
2023-01-26T06:15:10.425Z,26.73
2023-01-26T06:17:38.689Z,25.42
2023-01-26T06:20:09.487Z,26.83
2023-01-26T06:22:37.920Z,28.33
2023-01-26T06:25:06.711Z,21.67
2023-01-26T06:27:37.257Z,23.83
2023-01-26T06:30:06.303Z,25.85
2023-01-26T06:32:36.963Z,24.17
2023-01-26T06:35:06.513Z,21.95
2023-01-26T06:37:34.657Z,22.92
2023-01-26T06:40:03.244Z,21.63
2023-01-26T06:42:32.579Z,23.60
2023-01-26T06:45:02.373Z,23.30
2023-01-26T06:47:30.203Z,26.23
2023-01-26T06:49:58.159Z,19.08
2023-01-26T06:52:32.402Z,24.40
2023-01-26T06:55:01.752Z,19.55
2023-01-26T06:57:29.966Z,23.98
2023-01-26T06:59:58.337Z,22.00
2023-01-26T07:02:27.908Z,22.08
2023-01-26T07:04:58.554Z,20.25
2023-01-26T07:07:27.398Z,21.33
2023-01-26T07:09:56.209Z,20.67
2023-01-26T07:12:25.079Z,21.90
2023-01-26T07:14:55.937Z,23.92
2023-01-26T07:17:24.235Z,22.88
2023-01-26T07:19:53.769Z,22.63
2023-01-26T07:22:21.976Z,20.17
2023-01-26T07:24:50.046Z,17.85
2023-01-26T07:27:18.526Z,24.17
2023-01-26T07:29:46.966Z,20.38
2023-01-26T07:32:15.232Z,20.30
2023-01-26T07:34:43.266Z,18.55
2023-01-26T07:37:12.740Z,18.90
2023-01-26T07:39:41.024Z,18.40
2023-01-26T07:42:10.465Z,20.05
2023-01-26T07:44:39.156Z,25.63
2023-01-26T07:47:08.007Z,21.27
2023-01-26T07:49:36.089Z,20.77
2023-01-26T07:52:06.088Z,14.88
2023-01-26T07:54:35.789Z,16.90
2023-01-26T07:57:03.870Z,12.82
2023-01-26T07:59:32.278Z,17.17
2023-01-26T08:02:08.205Z,17.98
2023-01-26T08:04:36.435Z,17.73
2023-01-26T08:07:04.698Z,19.70
2023-01-26T08:09:33.181Z,19.30
2023-01-26T08:12:05.621Z,18.33
2023-01-26T08:14:46.089Z,19.27
2023-01-26T08:17:17.538Z,17.90
2023-01-26T08:19:47.242Z,22.08
2023-01-26T08:22:15.270Z,12.13
2023-01-26T08:24:43.789Z,17.33
2023-01-26T08:27:16.177Z,16.13
2023-01-26T08:29:46.247Z,12.93
2023-01-26T08:32:14.547Z,16.08
2023-01-26T08:34:42.978Z,17.17
2023-01-26T08:37:11.446Z,19.92
2023-01-26T08:39:40.004Z,16.05
2023-01-26T08:42:08.363Z,13.23
2023-01-26T08:44:38.172Z,17.90
2023-01-26T08:47:06.386Z,16.08
2023-01-26T08:49:34.479Z,12.48
2023-01-26T08:52:03.356Z,14.20
2023-01-26T08:54:31.778Z,13.55
2023-01-26T08:57:00.160Z,16.58
2023-01-26T08:59:29.172Z,12.65
2023-01-26T09:01:59.275Z,13.45
2023-01-26T09:04:28.320Z,14.07
2023-01-26T09:06:56.773Z,10.00
2023-01-26T09:09:25.216Z,10.70
2023-01-26T09:12:01.959Z,9.73
2023-01-26T09:14:30.127Z,9.75
2023-01-26T09:17:00.434Z,11.25
2023-01-26T09:19:31.024Z,12.82
2023-01-26T09:21:59.329Z,11.80
2023-01-26T09:24:27.833Z,13.43
2023-01-26T09:26:56.958Z,12.68
2023-01-26T09:29:25.602Z,12.88
2023-01-26T09:31:55.153Z,13.63
2023-01-26T09:34:25.325Z,13.55
2023-01-26T09:36:53.277Z,14.95
2023-01-26T09:39:21.493Z,13.57
2023-01-26T09:42:05.288Z,14.75
2023-01-26T09:44:43.384Z,24.98
2023-01-26T09:47:19.378Z,19.85
2023-01-26T09:50:00.921Z,13.85
2023-01-26T09:52:31.782Z,19.67
2023-01-26T09:55:05.955Z,12.48
2023-01-26T09:57:42.113Z,10.13
2023-01-26T10:00:18.062Z,7.55
2023-01-26T10:02:58.305Z,8.38
2023-01-26T10:05:37.104Z,26.45
2023-01-26T10:08:12.708Z,15.88
2023-01-26T10:10:46.971Z,14.15
2023-01-26T10:13:16.974Z,11.68
2023-01-26T10:15:49.113Z,7.00
2023-01-26T10:18:20.006Z,7.70
2023-01-26T10:20:56.168Z,7.97
2023-01-26T10:23:28.712Z,8.70
2023-01-26T10:26:03.296Z,11.07
2023-01-26T10:28:35.347Z,11.73
2023-01-26T10:31:07.185Z,12.83
2023-01-26T10:33:37.928Z,9.75
2023-01-26T10:36:11.335Z,53.85
2023-01-26T10:38:44.789Z,9.40
2023-01-26T10:41:25.754Z,8.82
2023-01-26T10:43:56.240Z,10.77
2023-01-26T10:46:33.882Z,9.45
2023-01-26T10:49:03.711Z,12.90
2023-01-26T10:51:35.591Z,11.45
2023-01-26T10:54:24.278Z,11.90
2023-01-26T10:56:56.743Z,11.00
2023-01-26T10:59:30.758Z,10.68
2023-01-26T11:02:02.735Z,9.00
2023-01-26T11:04:32.781Z,11.53
2023-01-26T11:07:26.426Z,11.90
2023-01-26T11:09:55.321Z,9.15
2023-01-26T11:12:26.948Z,23.83
2023-01-26T11:15:04.340Z,14.18
2023-01-26T11:17:38.548Z,12.27
2023-01-26T11:20:26.769Z,15.85
2023-01-26T11:23:02.997Z,15.73
2023-01-26T11:25:40.617Z,15.38
2023-01-26T11:28:27.967Z,11.15
2023-01-26T11:31:13.021Z,15.05
2023-01-26T11:33:53.032Z,16.98
2023-01-26T11:36:34.385Z,13.98
2023-01-26T11:39:15.164Z,15.00
2023-01-26T11:41:56.405Z,14.20
2023-01-26T11:44:42.111Z,13.60
2023-01-26T11:47:23.796Z,24.27
2023-01-26T11:50:24.401Z,16.52
2023-01-26T11:53:22.506Z,19.55
2023-01-26T11:56:08.609Z,19.10
2023-01-26T11:58:41.930Z,13.55
2023-01-26T12:01:16.007Z,15.65
2023-01-26T12:03:48.011Z,15.27
2023-01-26T12:06:20.793Z,15.43
2023-01-26T12:08:54.257Z,15.93
2023-01-26T12:11:38.793Z,20.23
2023-01-26T12:14:16.702Z,20.33
2023-01-26T12:17:00.006Z,20.23
2023-01-26T12:19:44.509Z,22.10
2023-01-26T12:22:19.505Z,19.35
2023-01-26T12:25:19.048Z,16.58
2023-01-26T12:27:48.739Z,19.65
2023-01-26T12:30:27.087Z,19.77
2023-01-26T12:32:58.737Z,20.33
2023-01-26T12:35:43.617Z,23.27
2023-01-26T12:38:18.617Z,15.65
2023-01-26T12:41:01.364Z,16.33
2023-01-26T12:43:54.564Z,17.42
2023-01-26T12:46:25.000Z,15.63
2023-01-26T12:49:00.195Z,16.75
2023-01-26T12:51:32.513Z,18.60
2023-01-26T12:54:05.566Z,16.10
2023-01-26T12:56:38.723Z,14.98
2023-01-26T12:59:38.588Z,20.33
2023-01-26T13:02:22.436Z,17.92
2023-01-26T13:04:51.961Z,16.55
2023-01-26T13:07:33.761Z,17.25
2023-01-26T13:10:29.267Z,22.08
2023-01-26T13:13:00.379Z,20.10
2023-01-26T13:15:32.501Z,20.73
2023-01-26T13:18:02.134Z,23.35
2023-01-26T13:20:51.326Z,19.05
2023-01-26T13:23:44.840Z,21.48
2023-01-26T13:26:22.793Z,22.83
2023-01-26T13:28:51.155Z,19.90
2023-01-26T13:31:35.015Z,21.33
2023-01-26T13:34:08.660Z,17.33
2023-01-26T13:36:40.432Z,22.67
2023-01-26T13:39:15.435Z,21.08
2023-01-26T13:41:48.565Z,19.80
2023-01-26T13:44:19.800Z,22.65
2023-01-26T13:46:56.961Z,22.85
2023-01-26T13:49:27.352Z,24.50
2023-01-26T13:51:55.546Z,19.73
2023-01-26T13:54:24.849Z,19.00
2023-01-26T13:57:03.093Z,16.33
2023-01-26T13:59:33.142Z,18.80
2023-01-26T14:02:02.819Z,17.77
2023-01-26T14:04:32.483Z,18.58
2023-01-26T14:07:04.226Z,18.92
2023-01-26T14:09:35.076Z,18.55
2023-01-26T14:12:05.987Z,18.33
2023-01-26T14:14:36.910Z,20.75
2023-01-26T14:17:23.858Z,20.02
2023-01-26T14:19:53.203Z,19.35
2023-01-26T14:22:22.433Z,24.42
2023-01-26T14:24:52.839Z,21.88
2023-01-26T14:27:37.126Z,22.33
2023-01-26T14:30:23.010Z,24.17
2023-01-26T14:32:59.029Z,25.20
2023-01-26T14:35:34.735Z,23.58
2023-01-26T14:38:07.780Z,20.02
2023-01-26T14:40:35.740Z,24.63
2023-01-26T14:43:07.699Z,29.48
2023-01-26T14:45:36.524Z,27.23
2023-01-26T14:48:10.591Z,23.63
2023-01-26T14:50:39.412Z,24.05
2023-01-26T14:53:19.798Z,28.40
2023-01-26T14:55:49.255Z,26.73
2023-01-26T14:58:23.368Z,31.42
2023-01-26T15:00:52.569Z,26.85
2023-01-26T15:03:28.907Z,32.08
2023-01-26T15:06:17.070Z,29.67
2023-01-26T15:09:01.226Z,35.40
2023-01-26T15:11:54.684Z,31.90
2023-01-26T15:17:00.654Z,31.60
2023-01-26T15:19:39.258Z,34.53
2023-01-26T15:22:17.069Z,33.85
2023-01-26T15:24:47.953Z,37.75
2023-01-26T15:27:16.034Z,29.83
2023-01-26T15:29:44.617Z,29.50
2023-01-26T15:32:30.451Z,33.92
2023-01-26T15:35:18.857Z,34.30
2023-01-26T15:37:46.864Z,35.33
2023-01-26T15:40:15.590Z,34.15
2023-01-26T15:42:44.162Z,34.97
2023-01-26T15:45:24.666Z,37.67
2023-01-26T15:47:52.705Z,34.83
2023-01-26T15:50:27.839Z,37.58
2023-01-26T15:52:56.800Z,33.55
2023-01-26T15:55:29.294Z,37.13
2023-01-26T15:57:57.265Z,42.28
2023-01-26T16:00:28.220Z,39.38
2023-01-26T16:02:57.647Z,39.83
2023-01-26T16:05:28.843Z,33.25
2023-01-26T16:07:56.765Z,36.42
2023-01-26T16:10:24.929Z,35.67
2023-01-26T16:12:53.012Z,34.60
2023-01-26T16:15:32.224Z,36.22
2023-01-26T16:18:00.124Z,26.58
2023-01-26T16:20:29.444Z,32.30
2023-01-26T16:22:57.351Z,40.78
2023-01-26T16:25:27.769Z,39.88
2023-01-26T16:27:57.463Z,33.35
2023-01-26T16:30:26.588Z,33.33
2023-01-26T16:32:55.313Z,32.55
2023-01-26T16:35:24.721Z,33.58
2023-01-26T16:37:54.290Z,32.38
2023-01-26T16:40:22.367Z,28.40
2023-01-26T16:42:53.324Z,32.15
2023-01-26T16:45:24.443Z,28.75
2023-01-26T16:47:55.868Z,33.17
2023-01-26T16:50:24.171Z,26.20
2023-01-26T16:52:54.147Z,27.95
2023-01-26T16:55:23.522Z,24.80
2023-01-26T16:57:51.502Z,23.70
2023-01-26T17:00:21.674Z,34.70
2023-01-26T17:02:52.548Z,26.77
2023-01-26T17:05:22.746Z,22.95
2023-01-26T17:07:51.632Z,22.98
2023-01-26T17:10:22.798Z,22.80
2023-01-26T17:12:50.897Z,21.90
2023-01-26T17:15:19.680Z,23.70
2023-01-26T17:17:50.808Z,20.33
2023-01-26T17:20:20.194Z,19.42
2023-01-26T17:22:48.799Z,18.13
2023-01-26T17:25:17.813Z,22.67
2023-01-26T17:27:49.724Z,18.17
2023-01-26T17:30:19.521Z,21.02
2023-01-26T17:32:47.785Z,21.52
2023-01-26T17:35:16.309Z,17.30
2023-01-26T17:37:44.361Z,18.40
2023-01-26T17:40:16.326Z,21.58
2023-01-26T17:42:44.293Z,19.90
2023-01-26T17:45:14.194Z,16.70
2023-01-26T17:47:43.547Z,20.67
2023-01-26T17:50:12.398Z,21.58
2023-01-26T17:52:40.624Z,16.55
2023-01-26T17:55:10.080Z,21.50
2023-01-26T17:57:38.735Z,18.05
2023-01-26T18:00:08.489Z,18.52
2023-01-26T18:02:39.716Z,18.65
2023-01-26T18:05:09.467Z,17.30
2023-01-26T18:07:37.616Z,18.27
2023-01-26T18:10:06.903Z,20.70
2023-01-26T18:12:36.633Z,24.35
2023-01-26T18:15:05.128Z,24.77
2023-01-26T18:17:36.649Z,26.27
2023-01-26T18:20:07.002Z,23.27
2023-01-26T18:22:34.995Z,29.17
2023-01-26T18:25:03.014Z,26.35
2023-01-26T18:27:31.198Z,29.85
2023-01-26T18:29:59.771Z,26.85
2023-01-26T18:32:28.539Z,25.48
2023-01-26T18:34:56.509Z,26.00
2023-01-26T18:37:27.451Z,27.58
2023-01-26T18:39:55.393Z,30.13
2023-01-26T18:42:24.697Z,29.13
2023-01-26T18:45:00.798Z,27.70
2023-01-26T18:47:29.214Z,22.10
2023-01-26T18:50:00.113Z,26.27
2023-01-26T18:52:31.072Z,25.02
2023-01-26T18:55:00.531Z,24.35
2023-01-26T18:57:28.518Z,22.35
2023-01-26T18:59:56.747Z,23.10
2023-01-26T19:02:26.244Z,23.95
2023-01-26T19:04:55.078Z,25.20
2023-01-26T19:07:24.595Z,25.35
2023-01-26T19:09:54.160Z,27.33
2023-01-26T19:12:22.159Z,31.67
2023-01-26T19:14:50.081Z,28.65
2023-01-26T19:17:18.269Z,23.95
2023-01-26T19:19:47.572Z,30.13
2023-01-26T19:22:15.715Z,30.30
2023-01-26T19:24:44.340Z,33.65
2023-01-26T19:27:13.836Z,31.70
2023-01-26T19:29:41.763Z,31.17
2023-01-26T19:32:10.253Z,34.80
2023-01-26T19:34:38.404Z,32.25
2023-01-26T19:37:06.395Z,29.15
2023-01-26T19:39:36.757Z,31.80
2023-01-26T19:42:05.292Z,34.45
2023-01-26T19:44:34.762Z,29.75
2023-01-26T19:47:02.926Z,34.67
2023-01-26T19:49:31.063Z,34.42
2023-01-26T19:52:01.431Z,37.83
2023-01-26T19:54:29.781Z,33.92
2023-01-26T19:56:59.013Z,33.40
2023-01-26T19:59:27.637Z,36.83
2023-01-26T20:01:59.464Z,40.17
2023-01-26T20:04:27.415Z,35.90
2023-01-26T20:06:55.585Z,43.83
2023-01-26T20:09:23.868Z,38.55
2023-01-26T20:11:52.615Z,42.17
2023-01-26T20:14:21.283Z,43.33
2023-01-26T20:16:49.423Z,46.63
2023-01-26T20:19:19.240Z,44.65
2023-01-26T20:21:47.525Z,50.72
2023-01-26T20:24:16.793Z,37.50
2023-01-26T20:26:45.749Z,38.65
2023-01-26T20:29:15.320Z,43.78
2023-01-26T20:31:44.163Z,42.92
2023-01-26T20:34:13.625Z,42.92
2023-01-26T20:36:43.911Z,44.58
2023-01-26T20:39:16.565Z,46.53
2023-01-26T20:41:44.539Z,47.08
2023-01-26T20:44:13.559Z,49.90
2023-01-26T20:46:44.572Z,49.88
2023-01-26T20:49:15.827Z,45.72
2023-01-26T20:51:46.685Z,46.33
2023-01-26T20:54:17.633Z,41.55
2023-01-26T20:56:47.751Z,49.95
2023-01-26T20:59:15.889Z,51.13
2023-01-26T21:01:46.362Z,46.42
2023-01-26T21:04:14.472Z,48.40
2023-01-26T21:06:44.300Z,50.53
2023-01-26T21:09:13.043Z,44.47
2023-01-26T21:11:41.278Z,50.85
2023-01-26T21:14:13.210Z,43.92
2023-01-26T21:16:42.003Z,48.35
2023-01-26T21:19:09.987Z,49.03
2023-01-26T21:21:38.366Z,46.25
2023-01-26T21:24:08.942Z,50.15
2023-01-26T21:26:37.410Z,46.58
2023-01-26T21:29:06.622Z,42.45
2023-01-26T21:31:36.269Z,40.90
2023-01-26T21:34:04.401Z,47.85
2023-01-26T21:36:34.217Z,43.58
2023-01-26T21:39:02.707Z,46.08
2023-01-26T21:41:50.843Z,44.53
2023-01-26T21:44:20.195Z,51.33
2023-01-26T21:46:49.980Z,48.28
2023-01-26T21:49:18.193Z,43.58
2023-01-26T21:52:04.296Z,49.03
2023-01-26T21:54:32.677Z,48.17
2023-01-26T21:57:03.550Z,43.65
2023-01-26T21:59:30.891Z,43.70
2023-01-26T22:01:59.456Z,40.38
2023-01-26T22:04:29.046Z,38.90
2023-01-26T22:06:57.846Z,43.50
2023-01-26T22:09:26.711Z,41.03
2023-01-26T22:11:54.854Z,42.40
2023-01-26T22:14:26.139Z,45.22
2023-01-26T22:16:54.424Z,41.05
2023-01-26T22:19:25.978Z,46.88
2023-01-26T22:21:54.363Z,52.22
2023-01-26T22:24:24.270Z,46.08
2023-01-26T22:26:52.677Z,46.00
2023-01-26T22:29:20.948Z,41.58
2023-01-26T22:31:51.164Z,36.78
2023-01-26T22:34:19.216Z,47.65
2023-01-26T22:36:47.287Z,48.40
2023-01-26T22:39:16.996Z,46.13
2023-01-26T22:41:45.393Z,40.50
2023-01-26T22:44:13.498Z,44.65
2023-01-26T22:46:41.798Z,44.28
2023-01-26T22:49:12.335Z,42.33
2023-01-26T22:51:41.425Z,42.78
2023-01-26T22:54:09.458Z,42.58
2023-01-26T22:56:37.649Z,42.58
2023-01-26T22:59:06.199Z,45.65
2023-01-26T23:01:37.060Z,45.50
2023-01-26T23:04:07.438Z,43.05
2023-01-26T23:06:36.795Z,42.88
2023-01-26T23:09:05.332Z,40.65
2023-01-26T23:11:33.627Z,42.25
2023-01-26T23:14:02.325Z,40.72
2023-01-26T23:16:30.775Z,48.15
2023-01-26T23:19:00.400Z,54.00
2023-01-26T23:21:29.848Z,45.78
2023-01-26T23:24:00.605Z,49.08
2023-01-26T23:26:28.830Z,43.63
2023-01-26T23:28:57.199Z,46.60
2023-01-26T23:31:25.433Z,45.03
2023-01-26T23:33:53.606Z,50.92
2023-01-26T23:36:23.356Z,46.70
2023-01-26T23:38:52.686Z,43.40
2023-01-26T23:41:23.535Z,39.83
2023-01-26T23:43:54.513Z,43.17
2023-01-26T23:46:23.275Z,42.63
2023-01-26T23:48:52.049Z,42.40
2023-01-26T23:51:21.675Z,40.80
2023-01-26T23:53:49.926Z,46.40
2023-01-26T23:56:18.786Z,38.70
2023-01-26T23:58:50.484Z,42.75
